sensor_id;sensor_type;location;lat;lon;timestamp;noise_LAeq;noise_LA_min;noise_LA_max;noise_LA01;noise_LA95
77133;Laerm;26708;50.304;19.028;2023-02-21T00:00:46;43.60;39.09;49.42;;
77133;Laerm;26708;50.304;19.028;2023-02-21T00:03:03;45.56;38.65;53.03;;
77133;Laerm;26708;50.304;19.028;2023-02-21T00:05:21;48.40;41.84;58.26;;
77133;Laerm;26708;50.304;19.028;2023-02-21T00:07:42;46.42;40.58;55.17;;
77133;Laerm;26708;50.304;19.028;2023-02-21T00:10:01;49.31;42.21;58.32;;
77133;Laerm;26708;50.304;19.028;2023-02-21T00:12:20;44.04;38.92;56.73;;
77133;Laerm;26708;50.304;19.028;2023-02-21T00:14:38;40.93;38.40;49.66;;
77133;Laerm;26708;50.304;19.028;2023-02-21T00:16:55;45.17;38.52;52.81;;
77133;Laerm;26708;50.304;19.028;2023-02-21T00:19:17;48.68;42.64;58.70;;
77133;Laerm;26708;50.304;19.028;2023-02-21T00:21:34;45.66;40.69;55.12;;
77133;Laerm;26708;50.304;19.028;2023-02-21T00:23:54;46.18;40.28;56.31;;
77133;Laerm;26708;50.304;19.028;2023-02-21T00:26:16;50.76;41.62;64.94;;
77133;Laerm;26708;50.304;19.028;2023-02-21T00:28:36;46.84;41.34;53.94;;
77133;Laerm;26708;50.304;19.028;2023-02-21T00:30:53;43.89;40.09;48.17;;
77133;Laerm;26708;50.304;19.028;2023-02-21T00:33:24;52.13;40.86;62.53;;
77133;Laerm;26708;50.304;19.028;2023-02-21T00:35:45;49.22;40.90;58.48;;
77133;Laerm;26708;50.304;19.028;2023-02-21T00:38:03;50.57;43.33;60.85;;
77133;Laerm;26708;50.304;19.028;2023-02-21T00:40:27;51.57;41.13;69.97;;
77133;Laerm;26708;50.304;19.028;2023-02-21T00:42:45;45.20;40.65;52.99;;
77133;Laerm;26708;50.304;19.028;2023-02-21T00:45:13;47.12;41.90;55.82;;
77133;Laerm;26708;50.304;19.028;2023-02-21T00:47:31;53.11;41.90;68.95;;
77133;Laerm;26708;50.304;19.028;2023-02-21T00:49:53;46.32;41.36;55.91;;
77133;Laerm;26708;50.304;19.028;2023-02-21T00:52:10;45.46;39.14;54.12;;
77133;Laerm;26708;50.304;19.028;2023-02-21T00:54:28;43.71;39.41;56.83;;
77133;Laerm;26708;50.304;19.028;2023-02-21T00:56:48;41.47;38.41;44.65;;
77133;Laerm;26708;50.304;19.028;2023-02-21T00:59:05;42.62;38.83;50.05;;
77133;Laerm;26708;50.304;19.028;2023-02-21T01:01:58;42.35;39.11;49.93;;
77133;Laerm;26708;50.304;19.028;2023-02-21T01:04:28;42.67;39.05;49.02;;
77133;Laerm;26708;50.304;19.028;2023-02-21T01:06:49;42.98;39.15;50.93;;
77133;Laerm;26708;50.304;19.028;2023-02-21T01:09:09;42.02;38.48;51.02;;
77133;Laerm;26708;50.304;19.028;2023-02-21T01:17:41;45.96;39.43;56.54;;
77133;Laerm;26708;50.304;19.028;2023-02-21T01:20:08;41.80;39.19;47.63;;
77133;Laerm;26708;50.304;19.028;2023-02-21T01:22:28;41.57;38.00;46.15;;
77133;Laerm;26708;50.304;19.028;2023-02-21T01:24:55;45.97;38.32;57.64;;
77133;Laerm;26708;50.304;19.028;2023-02-21T01:27:13;43.71;39.20;51.49;;
77133;Laerm;26708;50.304;19.028;2023-02-21T01:30:05;43.51;39.48;49.80;;
77133;Laerm;26708;50.304;19.028;2023-02-21T01:32:56;49.98;39.17;69.38;;
77133;Laerm;26708;50.304;19.028;2023-02-21T01:35:15;46.20;39.62;55.33;;
77133;Laerm;26708;50.304;19.028;2023-02-21T01:37:51;44.02;39.15;54.34;;
77133;Laerm;26708;50.304;19.028;2023-02-21T01:40:17;48.29;39.95;57.85;;
77133;Laerm;26708;50.304;19.028;2023-02-21T01:42:34;45.47;39.94;51.26;;
77133;Laerm;26708;50.304;19.028;2023-02-21T01:45:46;43.60;39.74;50.14;;
77133;Laerm;26708;50.304;19.028;2023-02-21T01:48:13;43.92;39.11;53.57;;
77133;Laerm;26708;50.304;19.028;2023-02-21T01:50:31;44.02;38.49;51.92;;
77133;Laerm;26708;50.304;19.028;2023-02-21T01:52:52;43.46;39.67;53.34;;
77133;Laerm;26708;50.304;19.028;2023-02-21T01:55:33;43.38;38.62;58.23;;
77133;Laerm;26708;50.304;19.028;2023-02-21T01:58:04;44.07;39.35;49.41;;
77133;Laerm;26708;50.304;19.028;2023-02-21T02:03:37;43.48;39.32;53.26;;
77133;Laerm;26708;50.304;19.028;2023-02-21T02:12:11;44.87;39.46;53.46;;
77133;Laerm;26708;50.304;19.028;2023-02-21T02:15:21;49.39;38.84;66.40;;
77133;Laerm;26708;50.304;19.028;2023-02-21T02:24:57;45.77;39.34;57.10;;
77133;Laerm;26708;50.304;19.028;2023-02-21T02:37:46;47.26;40.21;60.09;;
77133;Laerm;26708;50.304;19.028;2023-02-21T02:40:05;47.85;40.73;57.14;;
77133;Laerm;26708;50.304;19.028;2023-02-21T02:42:47;48.86;41.11;60.38;;
77133;Laerm;26708;50.304;19.028;2023-02-21T02:51:51;49.03;40.80;60.76;;
77133;Laerm;26708;50.304;19.028;2023-02-21T02:54:24;49.32;41.24;62.95;;
77133;Laerm;26708;50.304;19.028;2023-02-21T02:56:46;48.03;41.25;61.85;;
77133;Laerm;26708;50.304;19.028;2023-02-21T02:59:09;47.31;40.75;59.74;;
77133;Laerm;26708;50.304;19.028;2023-02-21T03:01:44;49.26;41.36;59.76;;
77133;Laerm;26708;50.304;19.028;2023-02-21T03:04:19;48.26;41.20;59.99;;
77133;Laerm;26708;50.304;19.028;2023-02-21T03:07:00;47.91;41.59;60.37;;
77133;Laerm;26708;50.304;19.028;2023-02-21T03:09:50;48.02;41.49;59.36;;
77133;Laerm;26708;50.304;19.028;2023-02-21T03:21:27;51.43;41.45;60.46;;
77133;Laerm;26708;50.304;19.028;2023-02-21T03:23:47;47.36;41.98;60.29;;
77133;Laerm;26708;50.304;19.028;2023-02-21T03:26:29;54.98;41.33;74.14;;
77133;Laerm;26708;50.304;19.028;2023-02-21T03:29:14;55.82;41.60;70.42;;
77133;Laerm;26708;50.304;19.028;2023-02-21T03:31:43;48.13;41.90;59.71;;
77133;Laerm;26708;50.304;19.028;2023-02-21T03:34:16;51.23;40.93;73.36;;
77133;Laerm;26708;50.304;19.028;2023-02-21T03:37:32;52.98;40.97;75.69;;
77133;Laerm;26708;50.304;19.028;2023-02-21T03:40:25;47.80;40.52;65.08;;
77133;Laerm;26708;50.304;19.028;2023-02-21T03:43:10;47.44;42.24;59.74;;
77133;Laerm;26708;50.304;19.028;2023-02-21T03:49:15;50.08;43.19;60.88;;
77133;Laerm;26708;50.304;19.028;2023-02-21T04:06:12;52.47;41.98;70.07;;
77133;Laerm;26708;50.304;19.028;2023-02-21T04:08:25;51.70;43.00;67.20;;
77133;Laerm;26708;50.304;19.028;2023-02-21T04:10:48;49.59;42.86;59.28;;
77133;Laerm;26708;50.304;19.028;2023-02-21T04:13:01;51.77;41.89;68.26;;
77133;Laerm;26708;50.304;19.028;2023-02-21T04:15:19;51.98;42.07;66.92;;
77133;Laerm;26708;50.304;19.028;2023-02-21T04:19:57;48.06;42.34;65.15;;
77133;Laerm;26708;50.304;19.028;2023-02-21T04:25:02;51.45;41.69;68.86;;
77133;Laerm;26708;50.304;19.028;2023-02-21T04:27:54;51.71;41.57;67.38;;
77133;Laerm;26708;50.304;19.028;2023-02-21T04:30:49;52.46;40.88;69.33;;
77133;Laerm;26708;50.304;19.028;2023-02-21T04:33:39;48.88;44.28;59.37;;
77133;Laerm;26708;50.304;19.028;2023-02-21T04:35:48;49.59;43.63;60.37;;
77133;Laerm;26708;50.304;19.028;2023-02-21T04:38:13;56.92;43.58;73.23;;
77133;Laerm;26708;50.304;19.028;2023-02-21T04:40:44;49.67;44.23;59.21;;
77133;Laerm;26708;50.304;19.028;2023-02-21T04:42:54;56.23;43.34;73.03;;
77133;Laerm;26708;50.304;19.028;2023-02-21T04:44:59;53.34;44.21;66.75;;
77133;Laerm;26708;50.304;19.028;2023-02-21T04:47:08;51.89;42.80;61.40;;
77133;Laerm;26708;50.304;19.028;2023-02-21T04:49:55;51.35;43.75;63.13;;
77133;Laerm;26708;50.304;19.028;2023-02-21T04:52:24;55.61;42.83;73.50;;
77133;Laerm;26708;50.304;19.028;2023-02-21T04:55:08;53.84;43.25;70.73;;
77133;Laerm;26708;50.304;19.028;2023-02-21T04:57:29;50.08;43.54;58.86;;
77133;Laerm;26708;50.304;19.028;2023-02-21T05:00:07;57.25;44.17;74.17;;
77133;Laerm;26708;50.304;19.028;2023-02-21T05:02:52;54.88;42.90;69.79;;
77133;Laerm;26708;50.304;19.028;2023-02-21T05:05:02;50.85;44.98;60.92;;
77133;Laerm;26708;50.304;19.028;2023-02-21T05:07:40;55.68;45.35;74.12;;
77133;Laerm;26708;50.304;19.028;2023-02-21T05:10:36;56.65;45.15;71.95;;
77133;Laerm;26708;50.304;19.028;2023-02-21T05:12:43;53.66;46.01;67.14;;
77133;Laerm;26708;50.304;19.028;2023-02-21T05:15:05;56.51;46.54;69.18;;
77133;Laerm;26708;50.304;19.028;2023-02-21T05:18:17;52.85;45.70;68.47;;
77133;Laerm;26708;50.304;19.028;2023-02-21T05:20:24;58.47;46.88;69.44;;
77133;Laerm;26708;50.304;19.028;2023-02-21T05:22:32;56.97;45.76;71.62;;
77133;Laerm;26708;50.304;19.028;2023-02-21T05:24:56;57.70;46.77;72.19;;
77133;Laerm;26708;50.304;19.028;2023-02-21T05:33:49;56.37;47.01;68.70;;
77133;Laerm;26708;50.304;19.028;2023-02-21T05:35:58;57.99;45.44;69.01;;
77133;Laerm;26708;50.304;19.028;2023-02-21T05:38:04;58.09;47.12;69.41;;
77133;Laerm;26708;50.304;19.028;2023-02-21T05:40:16;56.61;45.58;74.71;;
77133;Laerm;26708;50.304;19.028;2023-02-21T05:42:49;58.55;47.56;69.46;;
77133;Laerm;26708;50.304;19.028;2023-02-21T05:44:56;63.80;46.07;90.02;;
77133;Laerm;26708;50.304;19.028;2023-02-21T05:47:05;57.16;47.27;70.30;;
77133;Laerm;26708;50.304;19.028;2023-02-21T05:49:14;51.35;46.72;72.02;;
77133;Laerm;26708;50.304;19.028;2023-02-21T05:51:19;59.41;46.82;71.91;;
77133;Laerm;26708;50.304;19.028;2023-02-21T05:53:24;58.01;45.64;71.82;;
77133;Laerm;26708;50.304;19.028;2023-02-21T05:55:31;59.33;46.66;72.39;;
77133;Laerm;26708;50.304;19.028;2023-02-21T05:57:37;57.83;45.73;74.24;;
77133;Laerm;26708;50.304;19.028;2023-02-21T05:59:42;59.09;47.60;71.64;;
77133;Laerm;26708;50.304;19.028;2023-02-21T06:01:49;63.97;47.98;78.73;;
77133;Laerm;26708;50.304;19.028;2023-02-21T06:03:54;61.79;46.71;77.90;;
77133;Laerm;26708;50.304;19.028;2023-02-21T06:06:01;59.07;47.04;72.05;;
77133;Laerm;26708;50.304;19.028;2023-02-21T06:08:07;59.28;44.51;70.19;;
77133;Laerm;26708;50.304;19.028;2023-02-21T06:10:12;57.82;44.97;72.95;;
77133;Laerm;26708;50.304;19.028;2023-02-21T06:12:17;53.94;45.87;65.24;;
77133;Laerm;26708;50.304;19.028;2023-02-21T06:14:23;58.25;45.81;74.54;;
77133;Laerm;26708;50.304;19.028;2023-02-21T06:16:32;62.03;47.32;78.44;;
77133;Laerm;26708;50.304;19.028;2023-02-21T06:18:38;59.59;46.46;71.77;;
77133;Laerm;26708;50.304;19.028;2023-02-21T06:20:43;58.27;45.86;71.74;;
77133;Laerm;26708;50.304;19.028;2023-02-21T06:22:50;57.11;45.65;68.82;;
77133;Laerm;26708;50.304;19.028;2023-02-21T06:24:55;59.17;46.52;74.60;;
77133;Laerm;26708;50.304;19.028;2023-02-21T06:27:00;59.67;46.20;72.36;;
77133;Laerm;26708;50.304;19.028;2023-02-21T06:29:06;60.99;45.94;74.54;;
77133;Laerm;26708;50.304;19.028;2023-02-21T06:31:11;60.02;47.97;72.27;;
77133;Laerm;26708;50.304;19.028;2023-02-21T06:33:16;58.77;48.57;71.89;;
77133;Laerm;26708;50.304;19.028;2023-02-21T06:35:21;56.68;45.88;68.59;;
77133;Laerm;26708;50.304;19.028;2023-02-21T06:37:25;59.18;47.37;70.32;;
77133;Laerm;26708;50.304;19.028;2023-02-21T06:39:34;60.92;47.50;71.17;;
77133;Laerm;26708;50.304;19.028;2023-02-21T06:41:38;60.81;46.47;77.12;;
77133;Laerm;26708;50.304;19.028;2023-02-21T06:43:42;57.36;45.50;74.42;;
77133;Laerm;26708;50.304;19.028;2023-02-21T06:45:48;56.60;46.31;69.21;;
77133;Laerm;26708;50.304;19.028;2023-02-21T06:47:53;60.22;45.80;72.53;;
77133;Laerm;26708;50.304;19.028;2023-02-21T06:49:58;62.22;48.15;75.77;;
77133;Laerm;26708;50.304;19.028;2023-02-21T06:52:05;63.34;46.13;76.43;;
77133;Laerm;26708;50.304;19.028;2023-02-21T06:54:10;60.40;46.55;71.21;;
77133;Laerm;26708;50.304;19.028;2023-02-21T06:56:17;59.27;46.62;69.21;;
77133;Laerm;26708;50.304;19.028;2023-02-21T06:58:22;60.33;45.45;74.12;;
77133;Laerm;26708;50.304;19.028;2023-02-21T07:00:27;58.69;47.85;69.47;;
77133;Laerm;26708;50.304;19.028;2023-02-21T07:02:31;56.99;45.76;69.84;;
77133;Laerm;26708;50.304;19.028;2023-02-21T07:04:37;58.97;45.64;70.97;;
77133;Laerm;26708;50.304;19.028;2023-02-21T07:06:41;60.91;47.40;74.31;;
77133;Laerm;26708;50.304;19.028;2023-02-21T07:08:46;61.30;46.47;72.81;;
77133;Laerm;26708;50.304;19.028;2023-02-21T07:10:52;54.71;45.44;68.59;;
77133;Laerm;26708;50.304;19.028;2023-02-21T07:12:59;58.67;45.88;71.88;;
77133;Laerm;26708;50.304;19.028;2023-02-21T07:15:05;60.55;46.74;68.81;;
77133;Laerm;26708;50.304;19.028;2023-02-21T07:17:10;58.01;44.86;69.86;;
77133;Laerm;26708;50.304;19.028;2023-02-21T07:19:15;61.55;46.88;75.79;;
77133;Laerm;26708;50.304;19.028;2023-02-21T07:21:21;57.01;47.08;69.19;;
77133;Laerm;26708;50.304;19.028;2023-02-21T07:23:27;59.06;45.77;71.15;;
77133;Laerm;26708;50.304;19.028;2023-02-21T07:25:31;59.81;46.53;73.22;;
77133;Laerm;26708;50.304;19.028;2023-02-21T07:27:36;60.76;45.84;72.84;;
77133;Laerm;26708;50.304;19.028;2023-02-21T07:29:46;61.08;47.64;73.01;;
77133;Laerm;26708;50.304;19.028;2023-02-21T07:31:51;60.04;46.96;72.60;;
77133;Laerm;26708;50.304;19.028;2023-02-21T07:33:57;61.63;45.41;74.69;;
77133;Laerm;26708;50.304;19.028;2023-02-21T07:36:04;60.85;45.65;71.72;;
77133;Laerm;26708;50.304;19.028;2023-02-21T07:38:19;61.12;47.32;73.83;;
77133;Laerm;26708;50.304;19.028;2023-02-21T07:40:24;60.23;46.07;72.49;;
77133;Laerm;26708;50.304;19.028;2023-02-21T07:42:29;56.64;45.62;71.59;;
77133;Laerm;26708;50.304;19.028;2023-02-21T07:44:34;58.64;47.69;69.94;;
77133;Laerm;26708;50.304;19.028;2023-02-21T07:46:41;57.34;45.49;70.04;;
77133;Laerm;26708;50.304;19.028;2023-02-21T07:48:47;59.83;47.26;71.28;;
77133;Laerm;26708;50.304;19.028;2023-02-21T07:50:52;60.60;46.38;70.67;;
77133;Laerm;26708;50.304;19.028;2023-02-21T07:52:56;61.37;46.06;79.53;;
77133;Laerm;26708;50.304;19.028;2023-02-21T07:55:02;61.09;45.40;71.82;;
77133;Laerm;26708;50.304;19.028;2023-02-21T07:57:06;61.09;48.22;70.89;;
77133;Laerm;26708;50.304;19.028;2023-02-21T07:59:11;60.77;46.80;70.52;;
77133;Laerm;26708;50.304;19.028;2023-02-21T08:01:17;56.22;44.70;69.90;;
77133;Laerm;26708;50.304;19.028;2023-02-21T08:03:24;60.43;47.67;69.90;;
77133;Laerm;26708;50.304;19.028;2023-02-21T08:05:29;56.66;46.36;70.14;;
77133;Laerm;26708;50.304;19.028;2023-02-21T08:07:34;60.50;47.08;72.89;;
77133;Laerm;26708;50.304;19.028;2023-02-21T08:09:40;62.42;47.58;79.26;;
77133;Laerm;26708;50.304;19.028;2023-02-21T08:11:44;58.46;44.31;70.53;;
77133;Laerm;26708;50.304;19.028;2023-02-21T08:13:49;60.30;45.76;74.63;;
77133;Laerm;26708;50.304;19.028;2023-02-21T08:15:54;60.06;47.76;71.72;;
77133;Laerm;26708;50.304;19.028;2023-02-21T08:17:59;59.73;47.51;73.10;;
77133;Laerm;26708;50.304;19.028;2023-02-21T08:20:08;55.86;44.87;68.83;;
77133;Laerm;26708;50.304;19.028;2023-02-21T08:22:13;60.48;46.07;69.83;;
77133;Laerm;26708;50.304;19.028;2023-02-21T08:24:18;57.04;45.09;70.01;;
77133;Laerm;26708;50.304;19.028;2023-02-21T08:26:24;57.91;46.49;70.49;;
77133;Laerm;26708;50.304;19.028;2023-02-21T08:28:28;56.62;46.57;68.69;;
77133;Laerm;26708;50.304;19.028;2023-02-21T08:30:33;59.31;47.65;68.41;;
77133;Laerm;26708;50.304;19.028;2023-02-21T08:32:38;59.10;47.89;69.54;;
77133;Laerm;26708;50.304;19.028;2023-02-21T08:34:45;57.83;46.43;68.10;;
77133;Laerm;26708;50.304;19.028;2023-02-21T08:36:52;57.29;46.86;66.93;;
77133;Laerm;26708;50.304;19.028;2023-02-21T08:38:57;58.80;46.96;69.53;;
77133;Laerm;26708;50.304;19.028;2023-02-21T08:41:02;61.36;48.38;78.19;;
77133;Laerm;26708;50.304;19.028;2023-02-21T08:43:06;60.41;47.20;73.69;;
77133;Laerm;26708;50.304;19.028;2023-02-21T08:45:16;58.43;47.79;68.18;;
77133;Laerm;26708;50.304;19.028;2023-02-21T08:47:21;60.30;48.53;76.25;;
77133;Laerm;26708;50.304;19.028;2023-02-21T08:49:26;58.37;48.29;69.57;;
77133;Laerm;26708;50.304;19.028;2023-02-21T08:51:32;59.77;48.85;72.13;;
77133;Laerm;26708;50.304;19.028;2023-02-21T08:53:40;58.60;49.24;69.34;;
77133;Laerm;26708;50.304;19.028;2023-02-21T08:55:45;59.50;47.50;72.08;;
77133;Laerm;26708;50.304;19.028;2023-02-21T08:57:53;58.64;47.52;69.63;;
77133;Laerm;26708;50.304;19.028;2023-02-21T08:59:58;59.54;47.70;69.11;;
77133;Laerm;26708;50.304;19.028;2023-02-21T09:02:03;60.82;47.04;73.44;;
77133;Laerm;26708;50.304;19.028;2023-02-21T09:04:14;59.98;47.29;69.73;;
77133;Laerm;26708;50.304;19.028;2023-02-21T09:06:19;56.56;45.11;74.51;;
77133;Laerm;26708;50.304;19.028;2023-02-21T09:08:24;60.65;47.16;71.54;;
77133;Laerm;26708;50.304;19.028;2023-02-21T09:10:34;60.04;45.99;72.41;;
77133;Laerm;26708;50.304;19.028;2023-02-21T09:12:41;59.68;45.17;69.57;;
77133;Laerm;26708;50.304;19.028;2023-02-21T09:14:45;61.28;45.23;72.21;;
77133;Laerm;26708;50.304;19.028;2023-02-21T09:16:51;57.86;46.32;70.02;;
77133;Laerm;26708;50.304;19.028;2023-02-21T09:18:58;57.56;46.58;70.08;;
77133;Laerm;26708;50.304;19.028;2023-02-21T09:23:29;60.79;46.24;73.31;;
77133;Laerm;26708;50.304;19.028;2023-02-21T09:25:36;58.02;45.04;68.92;;
77133;Laerm;26708;50.304;19.028;2023-02-21T09:27:41;57.89;45.85;68.15;;
77133;Laerm;26708;50.304;19.028;2023-02-21T09:29:50;61.44;45.51;73.95;;
77133;Laerm;26708;50.304;19.028;2023-02-21T09:31:57;58.89;45.76;71.67;;
77133;Laerm;26708;50.304;19.028;2023-02-21T09:34:02;59.16;46.45;70.09;;
77133;Laerm;26708;50.304;19.028;2023-02-21T09:44:51;59.39;47.42;68.49;;
77133;Laerm;26708;50.304;19.028;2023-02-21T09:47:02;58.22;46.37;71.57;;
77133;Laerm;26708;50.304;19.028;2023-02-21T09:49:16;58.19;45.89;68.36;;
77133;Laerm;26708;50.304;19.028;2023-02-21T09:51:25;60.42;45.41;74.18;;
77133;Laerm;26708;50.304;19.028;2023-02-21T09:53:37;57.51;45.86;70.41;;
77133;Laerm;26708;50.304;19.028;2023-02-21T09:55:43;59.28;45.50;71.05;;
77133;Laerm;26708;50.304;19.028;2023-02-21T09:57:48;58.96;46.35;68.55;;
77133;Laerm;26708;50.304;19.028;2023-02-21T09:59:56;59.11;44.28;70.55;;
77133;Laerm;26708;50.304;19.028;2023-02-21T10:02:28;60.01;46.21;72.51;;
77133;Laerm;26708;50.304;19.028;2023-02-21T10:04:58;62.09;46.82;74.66;;
77133;Laerm;26708;50.304;19.028;2023-02-21T10:07:16;61.72;47.64;71.55;;
77133;Laerm;26708;50.304;19.028;2023-02-21T10:09:39;61.55;45.19;72.61;;
77133;Laerm;26708;50.304;19.028;2023-02-21T10:11:58;60.96;45.37;72.71;;
77133;Laerm;26708;50.304;19.028;2023-02-21T10:14:24;59.90;45.27;73.76;;
77133;Laerm;26708;50.304;19.028;2023-02-21T10:16:44;59.14;45.96;68.93;;
77133;Laerm;26708;50.304;19.028;2023-02-21T10:19:06;58.99;45.52;72.55;;
77133;Laerm;26708;50.304;19.028;2023-02-21T10:21:23;57.39;44.78;69.73;;
77133;Laerm;26708;50.304;19.028;2023-02-21T10:23:36;59.03;45.08;68.12;;
77133;Laerm;26708;50.304;19.028;2023-02-21T10:25:45;57.70;46.90;69.34;;
77133;Laerm;26708;50.304;19.028;2023-02-21T10:27:53;54.89;44.52;64.95;;
77133;Laerm;26708;50.304;19.028;2023-02-21T10:30:05;61.41;47.81;78.50;;
77133;Laerm;26708;50.304;19.028;2023-02-21T10:32:13;58.32;45.29;66.97;;
77133;Laerm;26708;50.304;19.028;2023-02-21T10:34:24;59.76;45.32;69.75;;
77133;Laerm;26708;50.304;19.028;2023-02-21T10:36:30;58.69;46.29;70.76;;
77133;Laerm;26708;50.304;19.028;2023-02-21T10:38:34;61.44;47.72;74.04;;
77133;Laerm;26708;50.304;19.028;2023-02-21T10:40:46;57.67;47.72;67.63;;
77133;Laerm;26708;50.304;19.028;2023-02-21T10:43:01;60.04;47.83;70.23;;
77133;Laerm;26708;50.304;19.028;2023-02-21T10:45:10;60.08;46.79;74.96;;
77133;Laerm;26708;50.304;19.028;2023-02-21T10:47:26;59.85;48.52;71.67;;
77133;Laerm;26708;50.304;19.028;2023-02-21T10:49:44;59.79;47.81;72.21;;
77133;Laerm;26708;50.304;19.028;2023-02-21T10:52:10;60.54;46.82;71.69;;
77133;Laerm;26708;50.304;19.028;2023-02-21T10:54:21;61.46;46.90;72.29;;
77133;Laerm;26708;50.304;19.028;2023-02-21T10:56:28;58.76;44.75;70.46;;
77133;Laerm;26708;50.304;19.028;2023-02-21T10:58:35;61.49;45.95;72.06;;
77133;Laerm;26708;50.304;19.028;2023-02-21T11:00:44;62.42;46.08;71.09;;
77133;Laerm;26708;50.304;19.028;2023-02-21T11:02:56;59.31;48.32;71.86;;
77133;Laerm;26708;50.304;19.028;2023-02-21T11:05:13;60.89;44.47;76.41;;
77133;Laerm;26708;50.304;19.028;2023-02-21T11:07:19;60.53;47.36;74.01;;
77133;Laerm;26708;50.304;19.028;2023-02-21T11:09:37;59.21;45.14;69.69;;
77133;Laerm;26708;50.304;19.028;2023-02-21T11:11:42;57.15;45.17;68.13;;
77133;Laerm;26708;50.304;19.028;2023-02-21T11:13:48;59.23;46.42;71.37;;
77133;Laerm;26708;50.304;19.028;2023-02-21T11:16:16;58.86;46.24;70.13;;
77133;Laerm;26708;50.304;19.028;2023-02-21T11:18:25;57.76;45.88;69.02;;
77133;Laerm;26708;50.304;19.028;2023-02-21T11:20:30;60.60;46.99;77.41;;
77133;Laerm;26708;50.304;19.028;2023-02-21T11:22:38;58.27;43.85;72.31;;
77133;Laerm;26708;50.304;19.028;2023-02-21T11:24:58;60.56;44.98;73.87;;
77133;Laerm;26708;50.304;19.028;2023-02-21T11:27:05;56.86;45.99;65.34;;
77133;Laerm;26708;50.304;19.028;2023-02-21T11:29:15;61.06;48.38;73.32;;
77133;Laerm;26708;50.304;19.028;2023-02-21T11:31:28;62.52;49.84;75.71;;
77133;Laerm;26708;50.304;19.028;2023-02-21T11:33:50;61.83;50.90;75.78;;
77133;Laerm;26708;50.304;19.028;2023-02-21T11:36:11;61.79;49.97;73.58;;
77133;Laerm;26708;50.304;19.028;2023-02-21T11:38:33;60.82;50.93;73.34;;
77133;Laerm;26708;50.304;19.028;2023-02-21T11:40:48;63.10;54.80;72.27;;
77133;Laerm;26708;50.304;19.028;2023-02-21T11:43:26;63.80;55.15;73.55;;
77133;Laerm;26708;50.304;19.028;2023-02-21T11:45:32;63.64;51.69;73.01;;
77133;Laerm;26708;50.304;19.028;2023-02-21T11:47:45;62.54;47.89;73.80;;
77133;Laerm;26708;50.304;19.028;2023-02-21T11:50:09;61.11;46.44;73.23;;
77133;Laerm;26708;50.304;19.028;2023-02-21T11:52:23;61.28;47.64;73.36;;
77133;Laerm;26708;50.304;19.028;2023-02-21T11:54:30;59.64;45.93;75.49;;
77133;Laerm;26708;50.304;19.028;2023-02-21T11:56:49;56.33;45.11;71.38;;
77133;Laerm;26708;50.304;19.028;2023-02-21T11:59:09;60.16;46.49;72.09;;
77133;Laerm;26708;50.304;19.028;2023-02-21T12:01:27;58.37;44.77;73.25;;
77133;Laerm;26708;50.304;19.028;2023-02-21T12:04:03;59.45;47.19;71.16;;
77133;Laerm;26708;50.304;19.028;2023-02-21T12:06:27;60.67;47.94;81.45;;
77133;Laerm;26708;50.304;19.028;2023-02-21T12:08:44;61.82;47.36;76.73;;
77133;Laerm;26708;50.304;19.028;2023-02-21T12:11:07;60.45;48.74;71.08;;
77133;Laerm;26708;50.304;19.028;2023-02-21T12:13:35;58.37;49.35;68.37;;
77133;Laerm;26708;50.304;19.028;2023-02-21T12:15:57;62.35;50.69;78.00;;
77133;Laerm;26708;50.304;19.028;2023-02-21T12:18:36;60.98;47.21;69.91;;
77133;Laerm;26708;50.304;19.028;2023-02-21T12:21:24;61.45;50.91;72.27;;
77133;Laerm;26708;50.304;19.028;2023-02-21T12:23:48;58.75;45.36;69.51;;
77133;Laerm;26708;50.304;19.028;2023-02-21T12:26:18;55.47;44.74;70.23;;
77133;Laerm;26708;50.304;19.028;2023-02-21T12:28:53;57.91;45.27;72.25;;
77133;Laerm;26708;50.304;19.028;2023-02-21T12:31:23;60.31;45.50;71.07;;
77133;Laerm;26708;50.304;19.028;2023-02-21T12:33:43;59.64;45.33;76.73;;
77133;Laerm;26708;50.304;19.028;2023-02-21T12:36:11;59.11;44.78;74.74;;
77133;Laerm;26708;50.304;19.028;2023-02-21T12:38:42;61.98;44.95;72.01;;
77133;Laerm;26708;50.304;19.028;2023-02-21T12:41:07;59.79;44.77;71.37;;
77133;Laerm;26708;50.304;19.028;2023-02-21T12:43:41;57.98;44.08;69.94;;
77133;Laerm;26708;50.304;19.028;2023-02-21T12:46:04;59.37;44.71;71.09;;
77133;Laerm;26708;50.304;19.028;2023-02-21T12:48:26;59.64;45.17;69.50;;
77133;Laerm;26708;50.304;19.028;2023-02-21T12:50:39;60.34;51.30;69.40;;
77133;Laerm;26708;50.304;19.028;2023-02-21T12:52:58;57.34;51.81;64.13;;
77133;Laerm;26708;50.304;19.028;2023-02-21T12:55:20;61.33;48.66;72.31;;
77133;Laerm;26708;50.304;19.028;2023-02-21T12:57:34;58.79;45.88;71.00;;
77133;Laerm;26708;50.304;19.028;2023-02-21T12:59:56;61.37;46.38;71.68;;
77133;Laerm;26708;50.304;19.028;2023-02-21T13:02:20;57.76;44.52;72.18;;
77133;Laerm;26708;50.304;19.028;2023-02-21T13:04:43;58.95;46.59;72.65;;
77133;Laerm;26708;50.304;19.028;2023-02-21T13:07:01;58.03;46.26;69.92;;
77133;Laerm;26708;50.304;19.028;2023-02-21T13:09:23;60.32;47.82;72.33;;
77133;Laerm;26708;50.304;19.028;2023-02-21T13:11:40;58.77;48.92;68.55;;
77133;Laerm;26708;50.304;19.028;2023-02-21T13:13:47;60.91;50.18;70.71;;
77133;Laerm;26708;50.304;19.028;2023-02-21T13:15:53;58.61;46.88;72.80;;
77133;Laerm;26708;50.304;19.028;2023-02-21T13:18:06;60.20;46.23;72.80;;
77133;Laerm;26708;50.304;19.028;2023-02-21T13:20:20;62.10;47.63;76.37;;
77133;Laerm;26708;50.304;19.028;2023-02-21T13:22:44;60.52;49.04;70.69;;
77133;Laerm;26708;50.304;19.028;2023-02-21T13:25:48;58.94;51.11;70.16;;
77133;Laerm;26708;50.304;19.028;2023-02-21T13:28:08;59.60;49.71;74.77;;
77133;Laerm;26708;50.304;19.028;2023-02-21T13:30:26;66.00;46.79;84.25;;
77133;Laerm;26708;50.304;19.028;2023-02-21T13:32:39;56.45;45.48;67.13;;
77133;Laerm;26708;50.304;19.028;2023-02-21T13:34:54;57.77;46.59;69.70;;
77133;Laerm;26708;50.304;19.028;2023-02-21T13:37:06;58.37;46.51;71.18;;
77133;Laerm;26708;50.304;19.028;2023-02-21T13:39:27;60.61;48.33;71.69;;
77133;Laerm;26708;50.304;19.028;2023-02-21T13:41:38;59.07;45.26;68.70;;
77133;Laerm;26708;50.304;19.028;2023-02-21T13:43:52;57.65;44.90;69.71;;
77133;Laerm;26708;50.304;19.028;2023-02-21T13:48:42;62.06;46.25;83.59;;
77133;Laerm;26708;50.304;19.028;2023-02-21T13:50:50;59.98;48.65;69.40;;
77133;Laerm;26708;50.304;19.028;2023-02-21T13:53:18;61.67;47.77;71.58;;
77133;Laerm;26708;50.304;19.028;2023-02-21T13:55:29;59.59;48.53;70.60;;
77133;Laerm;26708;50.304;19.028;2023-02-21T13:57:39;60.18;46.89;75.66;;
77133;Laerm;26708;50.304;19.028;2023-02-21T13:59:48;58.28;47.20;70.49;;
77133;Laerm;26708;50.304;19.028;2023-02-21T14:02:20;57.49;45.94;70.59;;
77133;Laerm;26708;50.304;19.028;2023-02-21T14:05:04;58.91;46.65;70.66;;
77133;Laerm;26708;50.304;19.028;2023-02-21T14:07:10;58.58;45.19;69.13;;